sensor_id;sensor_type;location;lat;lon;timestamp;pressure;altitude;pressure_sealevel;temperature;humidity
30724;BME280;17473;52.286;20.930;2023-02-12T00:01:22;101557.16;;;3.86;69.91
30724;BME280;17473;52.286;20.930;2023-02-12T00:03:49;101543.97;;;3.84;69.75
30724;BME280;17473;52.286;20.930;2023-02-12T00:06:16;101551.16;;;3.87;69.80
30724;BME280;17473;52.286;20.930;2023-02-12T00:08:44;101559.41;;;3.81;70.13
30724;BME280;17473;52.286;20.930;2023-02-12T00:11:17;101565.72;;;3.73;70.60
30724;BME280;17473;52.286;20.930;2023-02-12T00:13:44;101567.56;;;3.74;70.51
30724;BME280;17473;52.286;20.930;2023-02-12T00:16:18;101579.28;;;3.79;70.39
30724;BME280;17473;52.286;20.930;2023-02-12T00:18:47;101585.13;;;3.87;70.52
30724;BME280;17473;52.286;20.930;2023-02-12T00:21:14;101596.63;;;3.89;70.42
30724;BME280;17473;52.286;20.930;2023-02-12T00:23:43;101595.72;;;3.78;70.51
30724;BME280;17473;52.286;20.930;2023-02-12T00:26:14;101608.94;;;3.80;70.72
30724;BME280;17473;52.286;20.930;2023-02-12T00:28:41;101608.47;;;3.63;70.57
30724;BME280;17473;52.286;20.930;2023-02-12T00:31:19;101607.69;;;3.64;70.24
30724;BME280;17473;52.286;20.930;2023-02-12T00:33:47;101599.38;;;3.48;69.70
30724;BME280;17473;52.286;20.930;2023-02-12T00:36:21;101595.09;;;3.48;69.49
30724;BME280;17473;52.286;20.930;2023-02-12T00:38:51;101602.22;;;3.61;69.28
30724;BME280;17473;52.286;20.930;2023-02-12T00:41:19;101600.63;;;3.63;68.89
30724;BME280;17473;52.286;20.930;2023-02-12T00:43:46;101613.16;;;3.67;68.80
30724;BME280;17473;52.286;20.930;2023-02-12T00:46:14;101604.69;;;3.59;68.77
30724;BME280;17473;52.286;20.930;2023-02-12T00:48:41;101598.50;;;3.47;68.98
30724;BME280;17473;52.286;20.930;2023-02-12T00:51:09;101621.84;;;3.45;68.87
30724;BME280;17473;52.286;20.930;2023-02-12T00:53:36;101622.38;;;3.52;68.45
30724;BME280;17473;52.286;20.930;2023-02-12T00:56:04;101626.94;;;3.54;68.34
30724;BME280;17473;52.286;20.930;2023-02-12T00:58:31;101636.59;;;3.55;68.22
30724;BME280;17473;52.286;20.930;2023-02-12T01:00:58;101634.78;;;3.54;68.65
30724;BME280;17473;52.286;20.930;2023-02-12T01:03:25;101637.91;;;3.50;68.28
30724;BME280;17473;52.286;20.930;2023-02-12T01:05:53;101655.28;;;3.50;68.02
30724;BME280;17473;52.286;20.930;2023-02-12T01:08:21;101655.16;;;3.58;67.76
30724;BME280;17473;52.286;20.930;2023-02-12T01:11:00;101657.25;;;3.42;68.11
30724;BME280;17473;52.286;20.930;2023-02-12T01:13:28;101661.97;;;3.46;68.36
30724;BME280;17473;52.286;20.930;2023-02-12T01:16:10;101662.59;;;3.54;68.03
30724;BME280;17473;52.286;20.930;2023-02-12T01:18:39;101661.78;;;3.55;67.93
30724;BME280;17473;52.286;20.930;2023-02-12T01:21:27;101662.06;;;3.48;68.13
30724;BME280;17473;52.286;20.930;2023-02-12T01:23:55;101679.06;;;3.53;67.78
30724;BME280;17473;52.286;20.930;2023-02-12T01:26:23;101688.06;;;3.56;67.81
30724;BME280;17473;52.286;20.930;2023-02-12T01:28:56;101683.50;;;3.54;67.93
30724;BME280;17473;52.286;20.930;2023-02-12T01:31:31;101689.63;;;3.54;67.55
30724;BME280;17473;52.286;20.930;2023-02-12T01:33:59;101689.91;;;3.47;67.77
30724;BME280;17473;52.286;20.930;2023-02-12T01:36:28;101689.75;;;3.45;67.75
30724;BME280;17473;52.286;20.930;2023-02-12T01:38:56;101701.53;;;3.51;67.39
30724;BME280;17473;52.286;20.930;2023-02-12T01:41:32;101696.56;;;3.54;66.80
30724;BME280;17473;52.286;20.930;2023-02-12T01:46:56;101701.81;;;3.43;67.01
30724;BME280;17473;52.286;20.930;2023-02-12T01:49:42;101702.19;;;3.48;66.74
30724;BME280;17473;52.286;20.930;2023-02-12T01:52:24;101693.31;;;3.46;66.68
30724;BME280;17473;52.286;20.930;2023-02-12T01:54:55;101721.53;;;3.40;66.72
30724;BME280;17473;52.286;20.930;2023-02-12T01:57:27;101714.84;;;3.43;66.87
30724;BME280;17473;52.286;20.930;2023-02-12T01:59:57;101718.63;;;3.47;66.46
30724;BME280;17473;52.286;20.930;2023-02-12T02:02:26;101735.34;;;3.49;66.41
30724;BME280;17473;52.286;20.930;2023-02-12T02:04:59;101722.16;;;3.48;66.68
30724;BME280;17473;52.286;20.930;2023-02-12T02:07:28;101728.69;;;3.53;66.29
30724;BME280;17473;52.286;20.930;2023-02-12T02:09:59;101730.53;;;3.43;66.57
30724;BME280;17473;52.286;20.930;2023-02-12T02:12:28;101731.44;;;3.44;66.16
30724;BME280;17473;52.286;20.930;2023-02-12T02:15:14;101746.19;;;3.43;65.82
30724;BME280;17473;52.286;20.930;2023-02-12T02:20:57;101757.81;;;3.47;65.62
30724;BME280;17473;52.286;20.930;2023-02-12T02:32:56;101789.00;;;3.45;65.60
30724;BME280;17473;52.286;20.930;2023-02-12T02:35:53;101786.66;;;3.38;66.38
30724;BME280;17473;52.286;20.930;2023-02-12T02:41:25;101815.66;;;3.41;65.46
30724;BME280;17473;52.286;20.930;2023-02-12T02:43:55;101806.38;;;3.45;64.90
30724;BME280;17473;52.286;20.930;2023-02-12T02:46:54;101802.50;;;3.40;65.15
30724;BME280;17473;52.286;20.930;2023-02-12T02:49:38;101812.13;;;3.41;64.68
30724;BME280;17473;52.286;20.930;2023-02-12T02:52:11;101812.94;;;3.40;64.42
30724;BME280;17473;52.286;20.930;2023-02-12T02:54:57;101824.03;;;3.27;64.37
30724;BME280;17473;52.286;20.930;2023-02-12T02:57:54;101834.31;;;3.25;64.06
30724;BME280;17473;52.286;20.930;2023-02-12T03:00:44;101840.09;;;3.32;63.40
30724;BME280;17473;52.286;20.930;2023-02-12T03:03:43;101854.56;;;3.38;62.84
30724;BME280;17473;52.286;20.930;2023-02-12T03:09:01;101866.19;;;3.21;63.23
30724;BME280;17473;52.286;20.930;2023-02-12T03:11:32;101868.81;;;3.32;62.92
30724;BME280;17473;52.286;20.930;2023-02-12T03:14:24;101867.34;;;3.15;63.25
30724;BME280;17473;52.286;20.930;2023-02-12T03:17:08;101881.19;;;3.24;63.30
30724;BME280;17473;52.286;20.930;2023-02-12T03:19:54;101888.75;;;3.21;63.19
30724;BME280;17473;52.286;20.930;2023-02-12T03:22:33;101887.72;;;3.29;63.04
30724;BME280;17473;52.286;20.930;2023-02-12T03:25:12;101891.09;;;3.28;63.08
30724;BME280;17473;52.286;20.930;2023-02-12T03:28:19;101891.50;;;3.22;62.97
30724;BME280;17473;52.286;20.930;2023-02-12T03:34:24;101897.13;;;3.27;62.86
30724;BME280;17473;52.286;20.930;2023-02-12T03:42:13;101915.78;;;3.21;62.64
30724;BME280;17473;52.286;20.930;2023-02-12T03:47:48;101939.78;;;3.17;62.57
30724;BME280;17473;52.286;20.930;2023-02-12T03:50:31;101934.53;;;3.07;62.86
30724;BME280;17473;52.286;20.930;2023-02-12T03:53:03;101947.50;;;3.16;62.82
30724;BME280;17473;52.286;20.930;2023-02-12T03:55:34;101945.25;;;3.10;63.04
30724;BME280;17473;52.286;20.930;2023-02-12T03:58:02;101943.88;;;2.94;63.32
30724;BME280;17473;52.286;20.930;2023-02-12T04:00:33;101953.03;;;3.00;63.49
30724;BME280;17473;52.286;20.930;2023-02-12T04:03:00;101951.84;;;2.96;63.42
30724;BME280;17473;52.286;20.930;2023-02-12T04:05:27;101945.56;;;2.94;63.13
30724;BME280;17473;52.286;20.930;2023-02-12T04:07:56;101957.78;;;2.85;63.55
30724;BME280;17473;52.286;20.930;2023-02-12T04:13:32;101971.66;;;2.94;63.17
30724;BME280;17473;52.286;20.930;2023-02-12T04:28:22;101988.88;;;2.92;62.45
30724;BME280;17473;52.286;20.930;2023-02-12T04:31:04;101990.72;;;2.93;61.86
30724;BME280;17473;52.286;20.930;2023-02-12T04:33:50;101975.94;;;2.83;62.19
30724;BME280;17473;52.286;20.930;2023-02-12T04:36:28;101986.25;;;2.92;61.87
30724;BME280;17473;52.286;20.930;2023-02-12T04:39:05;101986.56;;;2.95;61.87
30724;BME280;17473;52.286;20.930;2023-02-12T04:41:38;101984.47;;;2.91;62.07
30724;BME280;17473;52.286;20.930;2023-02-12T04:44:24;101982.75;;;2.91;61.89
30724;BME280;17473;52.286;20.930;2023-02-12T04:46:52;101989.03;;;2.93;61.96
30724;BME280;17473;52.286;20.930;2023-02-12T04:49:21;101990.94;;;2.86;62.18
30724;BME280;17473;52.286;20.930;2023-02-12T04:51:49;101998.63;;;2.84;62.28
30724;BME280;17473;52.286;20.930;2023-02-12T04:54:18;102008.84;;;2.91;61.89
30724;BME280;17473;52.286;20.930;2023-02-12T04:56:46;102005.34;;;2.91;62.07
30724;BME280;17473;52.286;20.930;2023-02-12T04:59:14;102008.97;;;2.93;61.92
30724;BME280;17473;52.286;20.930;2023-02-12T05:01:42;102013.06;;;3.00;61.87
30724;BME280;17473;52.286;20.930;2023-02-12T05:04:13;102020.78;;;2.98;61.79
30724;BME280;17473;52.286;20.930;2023-02-12T05:06:42;102028.66;;;2.89;62.05
30724;BME280;17473;52.286;20.930;2023-02-12T05:09:15;102029.66;;;2.81;62.36
30724;BME280;17473;52.286;20.930;2023-02-12T05:11:43;102036.50;;;2.89;62.42
30724;BME280;17473;52.286;20.930;2023-02-12T05:14:11;102046.69;;;2.86;62.67
30724;BME280;17473;52.286;20.930;2023-02-12T05:16:38;102046.09;;;2.80;62.72
30724;BME280;17473;52.286;20.930;2023-02-12T05:19:05;102062.16;;;2.85;62.60
30724;BME280;17473;52.286;20.930;2023-02-12T05:21:36;102061.19;;;2.93;62.54
30724;BME280;17473;52.286;20.930;2023-02-12T05:24:04;102074.75;;;2.89;62.34
30724;BME280;17473;52.286;20.930;2023-02-12T05:26:32;102064.06;;;2.96;62.37
30724;BME280;17473;52.286;20.930;2023-02-12T05:28:59;102054.28;;;2.93;62.06
30724;BME280;17473;52.286;20.930;2023-02-12T05:31:27;102065.50;;;2.92;61.85
30724;BME280;17473;52.286;20.930;2023-02-12T05:33:54;102069.16;;;2.94;61.86
30724;BME280;17473;52.286;20.930;2023-02-12T05:36:23;102075.38;;;2.86;62.04
30724;BME280;17473;52.286;20.930;2023-02-12T05:38:52;102077.00;;;2.94;61.82
30724;BME280;17473;52.286;20.930;2023-02-12T05:41:22;102080.22;;;2.92;61.82
30724;BME280;17473;52.286;20.930;2023-02-12T05:43:51;102086.25;;;2.91;62.09
30724;BME280;17473;52.286;20.930;2023-02-12T05:46:19;102085.66;;;2.85;62.35
30724;BME280;17473;52.286;20.930;2023-02-12T05:48:47;102092.72;;;2.86;62.05
30724;BME280;17473;52.286;20.930;2023-02-12T05:51:21;102092.50;;;2.74;62.51
30724;BME280;17473;52.286;20.930;2023-02-12T05:53:52;102094.13;;;2.82;62.39
30724;BME280;17473;52.286;20.930;2023-02-12T05:56:23;102106.44;;;2.74;62.58
30724;BME280;17473;52.286;20.930;2023-02-12T05:58:57;102116.63;;;2.71;62.81
30724;BME280;17473;52.286;20.930;2023-02-12T06:01:28;102115.97;;;2.74;62.70
30724;BME280;17473;52.286;20.930;2023-02-12T06:04:02;102117.72;;;2.64;62.97
30724;BME280;17473;52.286;20.930;2023-02-12T06:06:30;102132.31;;;2.62;63.05
30724;BME280;17473;52.286;20.930;2023-02-12T06:08:58;102137.88;;;2.29;63.45
30724;BME280;17473;52.286;20.930;2023-02-12T06:11:26;102140.44;;;2.38;63.66
30724;BME280;17473;52.286;20.930;2023-02-12T06:13:53;102139.25;;;2.62;63.04
30724;BME280;17473;52.286;20.930;2023-02-12T06:16:23;102154.47;;;2.57;63.20
30724;BME280;17473;52.286;20.930;2023-02-12T06:18:52;102156.00;;;2.55;63.34
30724;BME280;17473;52.286;20.930;2023-02-12T06:21:21;102147.94;;;2.71;62.54
30724;BME280;17473;52.286;20.930;2023-02-12T06:23:50;102160.91;;;2.52;62.94
30724;BME280;17473;52.286;20.930;2023-02-12T06:26:18;102166.75;;;2.22;63.47
30724;BME280;17473;52.286;20.930;2023-02-12T06:28:46;102150.91;;;2.29;63.20
30724;BME280;17473;52.286;20.930;2023-02-12T06:31:28;102166.06;;;2.42;63.19
30724;BME280;17473;52.286;20.930;2023-02-12T06:34:00;102164.78;;;2.75;62.48
30724;BME280;17473;52.286;20.930;2023-02-12T06:36:28;102164.78;;;2.75;62.29
30724;BME280;17473;52.286;20.930;2023-02-12T06:38:56;102167.31;;;2.84;62.03
30724;BME280;17473;52.286;20.930;2023-02-12T06:41:23;102177.06;;;2.76;61.71
30724;BME280;17473;52.286;20.930;2023-02-12T06:43:50;102171.84;;;2.76;61.69
30724;BME280;17473;52.286;20.930;2023-02-12T06:46:18;102171.38;;;2.99;61.19
30724;BME280;17473;52.286;20.930;2023-02-12T06:48:45;102171.25;;;3.17;60.63
30724;BME280;17473;52.286;20.930;2023-02-12T06:51:16;102180.91;;;3.37;59.82
30724;BME280;17473;52.286;20.930;2023-02-12T06:53:44;102176.00;;;3.50;59.21
30724;BME280;17473;52.286;20.930;2023-02-12T06:56:12;102176.00;;;3.50;59.10
30724;BME280;17473;52.286;20.930;2023-02-12T06:58:43;102184.91;;;3.52;58.99
30724;BME280;17473;52.286;20.930;2023-02-12T07:01:23;102186.88;;;3.55;58.93
30724;BME280;17473;52.286;20.930;2023-02-12T07:03:59;102178.06;;;5.25;55.82
30724;BME280;17473;52.286;20.930;2023-02-12T07:06:30;102179.75;;;7.94;48.96
30724;BME280;17473;52.286;20.930;2023-02-12T07:08:57;102174.47;;;9.60;44.21
30724;BME280;17473;52.286;20.930;2023-02-12T07:11:27;102163.47;;;10.77;41.78
30724;BME280;17473;52.286;20.930;2023-02-12T07:13:55;102172.31;;;11.68;39.38
30724;BME280;17473;52.286;20.930;2023-02-12T07:16:22;102169.47;;;12.43;37.65
30724;BME280;17473;52.286;20.930;2023-02-12T07:18:49;102182.75;;;13.28;36.54
30724;BME280;17473;52.286;20.930;2023-02-12T07:21:18;102173.41;;;14.07;35.37
30724;BME280;17473;52.286;20.930;2023-02-12T07:23:48;102162.06;;;14.89;34.02
30724;BME280;17473;52.286;20.930;2023-02-12T07:26:19;102170.16;;;15.11;32.18
30724;BME280;17473;52.286;20.930;2023-02-12T07:28:47;102177.13;;;15.50;32.11
30724;BME280;17473;52.286;20.930;2023-02-12T07:31:21;102174.69;;;15.77;31.59
30724;BME280;17473;52.286;20.930;2023-02-12T07:33:53;102163.78;;;15.71;31.45
30724;BME280;17473;52.286;20.930;2023-02-12T07:36:21;102151.16;;;16.11;32.19
30724;BME280;17473;52.286;20.930;2023-02-12T07:38:49;102145.88;;;16.35;31.93
30724;BME280;17473;52.286;20.930;2023-02-12T07:41:20;102163.31;;;16.74;31.52
30724;BME280;17473;52.286;20.930;2023-02-12T07:43:57;102167.78;;;16.51;31.22
30724;BME280;17473;52.286;20.930;2023-02-12T07:46:29;102174.75;;;16.94;30.77
30724;BME280;17473;52.286;20.930;2023-02-12T07:48:59;102174.34;;;17.35;30.75
30724;BME280;17473;52.286;20.930;2023-02-12T07:51:27;102177.63;;;18.07;30.09
30724;BME280;17473;52.286;20.930;2023-02-12T07:53:55;102179.78;;;18.49;29.71
30724;BME280;17473;52.286;20.930;2023-02-12T07:56:25;102187.06;;;18.85;29.16
30724;BME280;17473;52.286;20.930;2023-02-12T07:59:05;102186.53;;;18.67;28.92
30724;BME280;17473;52.286;20.930;2023-02-12T08:01:42;102177.69;;;19.00;29.63
30724;BME280;17473;52.286;20.930;2023-02-12T08:04:13;102185.66;;;19.67;28.20
30724;BME280;17473;52.286;20.930;2023-02-12T08:06:47;102197.97;;;19.95;27.74
30724;BME280;17473;52.286;20.930;2023-02-12T08:09:18;102200.91;;;20.06;27.42
30724;BME280;17473;52.286;20.930;2023-02-12T08:11:45;102200.19;;;20.13;26.85
30724;BME280;17473;52.286;20.930;2023-02-12T08:14:17;102201.97;;;19.76;26.27
30724;BME280;17473;52.286;20.930;2023-02-12T08:16:45;102210.47;;;19.58;26.17
30724;BME280;17473;52.286;20.930;2023-02-12T08:19:14;102208.94;;;18.70;26.35
30724;BME280;17473;52.286;20.930;2023-02-12T08:21:51;102217.97;;;18.14;27.11
30724;BME280;17473;52.286;20.930;2023-02-12T08:24:19;102216.94;;;17.56;27.23
30724;BME280;17473;52.286;20.930;2023-02-12T08:26:48;102224.28;;;17.63;27.63
30724;BME280;17473;52.286;20.930;2023-02-12T08:29:19;102223.09;;;17.81;27.44
30724;BME280;17473;52.286;20.930;2023-02-12T08:31:48;102227.19;;;17.71;28.13
30724;BME280;17473;52.286;20.930;2023-02-12T08:34:24;102220.88;;;18.22;27.39
30724;BME280;17473;52.286;20.930;2023-02-12T08:36:53;102221.72;;;18.50;27.37
30724;BME280;17473;52.286;20.930;2023-02-12T08:39:22;102218.75;;;18.41;27.64
30724;BME280;17473;52.286;20.930;2023-02-12T08:41:49;102214.25;;;18.99;26.60
30724;BME280;17473;52.286;20.930;2023-02-12T08:44:17;102211.34;;;19.59;26.76
30724;BME280;17473;52.286;20.930;2023-02-12T08:46:48;102208.56;;;19.91;25.83
30724;BME280;17473;52.286;20.930;2023-02-12T08:49:22;102207.13;;;20.04;26.13
30724;BME280;17473;52.286;20.930;2023-02-12T08:51:53;102202.44;;;19.95;25.87
30724;BME280;17473;52.286;20.930;2023-02-12T08:54:24;102193.34;;;20.28;25.12
30724;BME280;17473;52.286;20.930;2023-02-12T08:56:57;102200.09;;;20.91;24.90
30724;BME280;17473;52.286;20.930;2023-02-12T08:59:25;102217.06;;;20.90;24.90
30724;BME280;17473;52.286;20.930;2023-02-12T09:01:53;102223.59;;;21.54;24.74
30724;BME280;17473;52.286;20.930;2023-02-12T09:04:24;102221.56;;;21.91;24.15
30724;BME280;17473;52.286;20.930;2023-02-12T09:06:52;102227.06;;;22.00;24.29
30724;BME280;17473;52.286;20.930;2023-02-12T09:09:20;102222.16;;;21.73;23.58
30724;BME280;17473;52.286;20.930;2023-02-12T09:11:47;102218.94;;;21.97;24.00
30724;BME280;17473;52.286;20.930;2023-02-12T09:14:16;102227.41;;;21.65;23.60
30724;BME280;17473;52.286;20.930;2023-02-12T09:16:44;102217.22;;;22.01;23.17
30724;BME280;17473;52.286;20.930;2023-02-12T09:19:13;102226.94;;;21.91;23.22
30724;BME280;17473;52.286;20.930;2023-02-12T09:21:41;102226.63;;;22.32;23.20
30724;BME280;17473;52.286;20.930;2023-02-12T09:24:09;102231.59;;;22.66;22.99
30724;BME280;17473;52.286;20.930;2023-02-12T09:26:38;102230.22;;;22.99;22.41
30724;BME280;17473;52.286;20.930;2023-02-12T09:29:05;102237.38;;;22.98;22.10
30724;BME280;17473;52.286;20.930;2023-02-12T09:31:32;102242.81;;;23.02;22.42
30724;BME280;17473;52.286;20.930;2023-02-12T09:34:05;102242.09;;;23.17;22.02
30724;BME280;17473;52.286;20.930;2023-02-12T09:36:32;102245.56;;;23.08;21.97
30724;BME280;17473;52.286;20.930;2023-02-12T09:39:00;102251.41;;;23.50;21.81
30724;BME280;17473;52.286;20.930;2023-02-12T09:42:11;102251.47;;;23.56;21.41
30724;BME280;17473;52.286;20.930;2023-02-12T09:45:16;102252.56;;;23.75;20.82
30724;BME280;17473;52.286;20.930;2023-02-12T09:50:50;102252.44;;;23.61;21.24
30724;BME280;17473;52.286;20.930;2023-02-12T09:53:29;102258.00;;;23.81;20.93
30724;BME280;17473;52.286;20.930;2023-02-12T09:55:57;102254.25;;;23.62;20.43
30724;BME280;17473;52.286;20.930;2023-02-12T09:58:51;102248.94;;;23.74;20.71
30724;BME280;17473;52.286;20.930;2023-02-12T10:01:20;102251.88;;;24.04;20.30
30724;BME280;17473;52.286;20.930;2023-02-12T10:03:50;102251.97;;;24.15;19.81
30724;BME280;17473;52.286;20.930;2023-02-12T10:06:36;102241.19;;;24.18;20.23
30724;BME280;17473;52.286;20.930;2023-02-12T10:12:20;102247.47;;;24.14;20.26
30724;BME280;17473;52.286;20.930;2023-02-12T10:18:53;102257.41;;;24.22;19.93
30724;BME280;17473;52.286;20.930;2023-02-12T10:24:51;102251.00;;;24.05;20.12
30724;BME280;17473;52.286;20.930;2023-02-12T10:27:48;102258.91;;;23.83;20.26
30724;BME280;17473;52.286;20.930;2023-02-12T10:33:22;102262.25;;;23.54;20.38
30724;BME280;17473;52.286;20.930;2023-02-12T10:35:58;102244.97;;;23.31;20.54
30724;BME280;17473;52.286;20.930;2023-02-12T10:38:33;102241.44;;;23.39;20.40
30724;BME280;17473;52.286;20.930;2023-02-12T10:41:01;102247.75;;;22.64;20.99
30724;BME280;17473;52.286;20.930;2023-02-12T10:43:28;102242.31;;;22.60;20.79
30724;BME280;17473;52.286;20.930;2023-02-12T10:45:57;102244.00;;;22.53;20.86
30724;BME280;17473;52.286;20.930;2023-02-12T10:48:34;102243.88;;;22.44;21.06
30724;BME280;17473;52.286;20.930;2023-02-12T10:53:39;102249.69;;;22.13;21.25
30724;BME280;17473;52.286;20.930;2023-02-12T10:59:02;102258.25;;;22.46;21.70
30724;BME280;17473;52.286;20.930;2023-02-12T11:01:36;102259.31;;;22.57;21.47
30724;BME280;17473;52.286;20.930;2023-02-12T11:04:27;102256.66;;;22.60;21.66
30724;BME280;17473;52.286;20.930;2023-02-12T11:07:07;102245.53;;;22.35;21.72
30724;BME280;17473;52.286;20.930;2023-02-12T11:09:50;102249.75;;;22.19;21.93
30724;BME280;17473;52.286;20.930;2023-02-12T11:12:40;102249.47;;;21.99;22.38
30724;BME280;17473;52.286;20.930;2023-02-12T11:15:24;102252.78;;;21.83;22.31
30724;BME280;17473;52.286;20.930;2023-02-12T11:18:23;102245.09;;;21.54;22.36
30724;BME280;17473;52.286;20.930;2023-02-12T11:21:10;102252.63;;;21.24;22.36
30724;BME280;17473;52.286;20.930;2023-02-12T11:23:41;102256.88;;;21.13;22.64
30724;BME280;17473;52.286;20.930;2023-02-12T11:29:04;102258.88;;;21.23;22.89
30724;BME280;17473;52.286;20.930;2023-02-12T11:32:05;102244.59;;;20.82;23.21
30724;BME280;17473;52.286;20.930;2023-02-12T11:34:36;102248.78;;;20.69;23.61
30724;BME280;17473;52.286;20.930;2023-02-12T11:37:03;102229.06;;;20.67;23.74
30724;BME280;17473;52.286;20.930;2023-02-12T11:39:38;102234.31;;;20.21;24.10
30724;BME280;17473;52.286;20.930;2023-02-12T11:42:23;102230.13;;;19.95;24.12
30724;BME280;17473;52.286;20.930;2023-02-12T11:44:56;102239.38;;;19.73;24.43
30724;BME280;17473;52.286;20.930;2023-02-12T11:47:30;102224.16;;;19.70;24.74
30724;BME280;17473;52.286;20.930;2023-02-12T11:50:28;102217.19;;;19.42;25.17
30724;BME280;17473;52.286;20.930;2023-02-12T11:53:01;102216.09;;;19.34;25.18
30724;BME280;17473;52.286;20.930;2023-02-12T11:55:37;102216.97;;;19.34;25.29
30724;BME280;17473;52.286;20.930;2023-02-12T11:58:23;102230.41;;;19.02;25.57
30724;BME280;17473;52.286;20.930;2023-02-12T12:01:18;102226.63;;;18.96;25.60
30724;BME280;17473;52.286;20.930;2023-02-12T12:04:14;102222.66;;;19.13;25.37
30724;BME280;17473;52.286;20.930;2023-02-12T12:07:12;102227.22;;;19.51;24.58
30724;BME280;17473;52.286;20.930;2023-02-12T12:12:56;102230.13;;;18.63;25.36
30724;BME280;17473;52.286;20.930;2023-02-12T12:15:37;102224.03;;;18.09;25.84
30724;BME280;17473;52.286;20.930;2023-02-12T12:18:38;102203.59;;;17.56;26.57
30724;BME280;17473;52.286;20.930;2023-02-12T12:21:41;102211.44;;;17.51;26.97
30724;BME280;17473;52.286;20.930;2023-02-12T12:24:34;102202.56;;;17.27;26.86
30724;BME280;17473;52.286;20.930;2023-02-12T12:27:50;102202.19;;;17.16;27.04
30724;BME280;17473;52.286;20.930;2023-02-12T12:31:39;102209.63;;;16.76;27.45
30724;BME280;17473;52.286;20.930;2023-02-12T12:34:21;102206.47;;;16.64;27.18
30724;BME280;17473;52.286;20.930;2023-02-12T12:40:26;102205.81;;;16.00;28.09
30724;BME280;17473;52.286;20.930;2023-02-12T12:43:24;102212.84;;;15.55;29.01
30724;BME280;17473;52.286;20.930;2023-02-12T12:46:20;102188.59;;;15.28;29.80
30724;BME280;17473;52.286;20.930;2023-02-12T12:51:59;102195.28;;;15.18;30.01
30724;BME280;17473;52.286;20.930;2023-02-12T12:54:48;102197.84;;;14.76;31.03
30724;BME280;17473;52.286;20.930;2023-02-12T12:57:42;102191.34;;;14.69;31.44
30724;BME280;17473;52.286;20.930;2023-02-12T13:06:51;102188.78;;;14.15;32.70
30724;BME280;17473;52.286;20.930;2023-02-12T13:15:25;102184.06;;;13.53;33.78
30724;BME280;17473;52.286;20.930;2023-02-12T13:18:16;102191.72;;;13.30;34.18
30724;BME280;17473;52.286;20.930;2023-02-12T13:24:02;102193.09;;;13.06;34.32
30724;BME280;17473;52.286;20.930;2023-02-12T13:26:56;102186.16;;;12.75;35.01
30724;BME280;17473;52.286;20.930;2023-02-12T13:29:39;102187.59;;;12.68;34.98
30724;BME280;17473;52.286;20.930;2023-02-12T13:34:43;102194.69;;;12.36;35.60
30724;BME280;17473;52.286;20.930;2023-02-12T13:37:19;102201.56;;;12.01;36.32
30724;BME280;17473;52.286;20.930;2023-02-12T13:39:51;102208.06;;;11.91;36.35
30724;BME280;17473;52.286;20.930;2023-02-12T13:46:08;102197.03;;;11.68;36.89
30724;BME280;17473;52.286;20.930;2023-02-12T13:49:03;102190.13;;;11.55;37.06
30724;BME280;17473;52.286;20.930;2023-02-12T13:51:48;102182.47;;;11.30;37.67
30724;BME280;17473;52.286;20.930;2023-02-12T13:57:12;102190.97;;;11.09;37.92
30724;BME280;17473;52.286;20.930;2023-02-12T13:59:44;102197.06;;;11.08;37.89
30724;BME280;17473;52.286;20.930;2023-02-12T14:04:45;102196.56;;;10.86;38.58
30724;BME280;17473;52.286;20.930;2023-02-12T14:07:14;102195.09;;;10.76;38.74
30724;BME280;17473;52.286;20.930;2023-02-12T14:15:32;102198.56;;;10.46;39.58
30724;BME280;17473;52.286;20.930;2023-02-12T14:18:34;102207.22;;;10.44;39.89
30724;BME280;17473;52.286;20.930;2023-02-12T14:23:45;102192.88;;;10.27;40.65
30724;BME280;17473;52.286;20.930;2023-02-12T14:26:17;102191.34;;;10.30;40.74
30724;BME280;17473;52.286;20.930;2023-02-12T14:28:56;102191.72;;;10.37;40.40
30724;BME280;17473;52.286;20.930;2023-02-12T14:31:32;102192.72;;;10.10;41.48
30724;BME280;17473;52.286;20.930;2023-02-12T14:41:51;102188.78;;;9.77;42.09
30724;BME280;17473;52.286;20.930;2023-02-12T14:46:54;102193.22;;;9.37;43.14
30724;BME280;17473;52.286;20.930;2023-02-12T14:49:31;102191.31;;;9.21;43.58
30724;BME280;17473;52.286;20.930;2023-02-12T14:52:31;102201.44;;;9.29;43.40
30724;BME280;17473;52.286;20.930;2023-02-12T14:55:06;102198.47;;;9.11;43.91
30724;BME280;17473;52.286;20.930;2023-02-12T14:57:43;102190.94;;;9.03;44.28
30724;BME280;17473;52.286;20.930;2023-02-12T15:11:34;102198.28;;;8.45;45.58
30724;BME280;17473;52.286;20.930;2023-02-12T15:14:11;102199.38;;;8.23;46.37
30724;BME280;17473;52.286;20.930;2023-02-12T15:20:21;102209.81;;;8.10;46.72
30724;BME280;17473;52.286;20.930;2023-02-12T15:22:47;102206.97;;;7.95;47.07
30724;BME280;17473;52.286;20.930;2023-02-12T15:25:27;102216.91;;;8.11;46.91
30724;BME280;17473;52.286;20.930;2023-02-12T15:28:05;102208.25;;;7.88;47.28
30724;BME280;17473;52.286;20.930;2023-02-12T15:30:41;102215.44;;;7.55;48.52
30724;BME280;17473;52.286;20.930;2023-02-12T15:33:20;102215.09;;;7.62;48.33
30724;BME280;17473;52.286;20.930;2023-02-12T15:35:51;102214.88;;;7.47;48.94
30724;BME280;17473;52.286;20.930;2023-02-12T15:38:35;102214.53;;;7.43;49.17
30724;BME280;17473;52.286;20.930;2023-02-12T15:41:04;102217.97;;;7.54;49.01
30724;BME280;17473;52.286;20.930;2023-02-12T15:43:38;102221.28;;;7.51;49.17
30724;BME280;17473;52.286;20.930;2023-02-12T15:46:15;102234.09;;;7.46;49.73
30724;BME280;17473;52.286;20.930;2023-02-12T15:48:43;102229.72;;;7.47;49.53